createdAt,value
2017-06-23T00:01:13.000Z,9.82
2017-06-23T00:03:41.391Z,10.70
2017-06-23T00:06:09.697Z,10.38
2017-06-23T00:08:38.115Z,11.27
2017-06-23T00:11:06.416Z,10.10
2017-06-23T00:13:34.719Z,10.75
2017-06-23T00:16:03.783Z,13.00
2017-06-23T00:18:32.077Z,14.75
2017-06-23T00:21:01.139Z,13.75
2017-06-23T00:23:29.522Z,13.85
2017-06-23T00:25:57.827Z,13.00
2017-06-23T00:28:26.125Z,14.00
2017-06-23T00:31:03.207Z,16.52
2017-06-23T00:33:32.814Z,14.73
2017-06-23T00:36:01.124Z,15.60
2017-06-23T00:38:29.412Z,14.60
2017-06-23T00:40:58.472Z,15.27
2017-06-23T00:43:26.779Z,16.80
2017-06-23T00:45:55.072Z,14.90
2017-06-23T00:48:23.407Z,15.85
2017-06-23T00:50:51.759Z,15.90
2017-06-23T00:53:20.063Z,16.73
2017-06-23T00:55:48.569Z,17.17
2017-06-23T00:58:16.851Z,16.92
2017-06-23T01:00:45.143Z,17.05
2017-06-23T01:03:13.457Z,17.15
2017-06-23T01:05:41.837Z,18.10
2017-06-23T01:08:10.900Z,19.33
2017-06-23T01:10:39.198Z,17.70
2017-06-23T01:13:07.509Z,17.30
2017-06-23T01:15:35.800Z,17.50
2017-06-23T01:18:04.202Z,16.10
2017-06-23T01:20:32.507Z,16.30
2017-06-23T01:23:01.563Z,14.55
2017-06-23T01:25:29.867Z,15.30
2017-06-23T01:27:58.166Z,14.35
2017-06-23T01:30:26.461Z,15.10
2017-06-23T01:32:54.792Z,13.68
2017-06-23T01:35:23.123Z,13.60
2017-06-23T01:37:52.164Z,12.05
2017-06-23T01:40:20.474Z,11.45
2017-06-23T01:42:48.889Z,13.43
2017-06-23T01:45:17.201Z,13.70
2017-06-23T01:47:45.492Z,12.80
2017-06-23T01:50:13.887Z,12.25
2017-06-23T01:52:42.401Z,13.20
2017-06-23T01:55:10.689Z,13.55
2017-06-23T01:57:38.994Z,13.95
2017-06-23T02:00:07.376Z,13.52
2017-06-23T02:02:35.731Z,14.23
2017-06-23T02:05:04.066Z,14.93
2017-06-23T02:07:33.151Z,16.87
2017-06-23T02:10:02.218Z,16.27
2017-06-23T02:12:30.525Z,16.00
2017-06-23T02:14:58.807Z,18.45
2017-06-23T02:17:27.155Z,17.37
2017-06-23T02:19:55.475Z,19.27
2017-06-23T02:22:23.995Z,17.80
2017-06-23T02:24:52.319Z,16.55
2017-06-23T02:27:21.405Z,16.02
2017-06-23T02:29:50.457Z,15.77
2017-06-23T02:32:18.744Z,15.20
2017-06-23T02:34:47.860Z,14.10
2017-06-23T02:37:16.183Z,13.30
2017-06-23T02:39:44.622Z,13.60
2017-06-23T02:42:12.922Z,14.23
2017-06-23T02:44:41.247Z,12.43
2017-06-23T02:47:09.539Z,12.05
2017-06-23T02:49:38.613Z,10.65
2017-06-23T02:52:06.955Z,12.80
2017-06-23T02:54:35.265Z,13.57
2017-06-23T02:57:03.557Z,12.20
2017-06-23T02:59:31.844Z,12.05
2017-06-23T03:02:00.159Z,13.40
2017-06-23T03:04:28.867Z,12.05
2017-06-23T03:06:57.164Z,12.23
2017-06-23T03:09:26.233Z,11.68
2017-06-23T03:11:55.515Z,10.85
2017-06-23T03:14:23.803Z,10.88
2017-06-23T03:16:52.996Z,10.30
2017-06-23T03:19:22.033Z,10.60
2017-06-23T03:21:50.327Z,9.20
2017-06-23T03:24:18.654Z,11.25
2017-06-23T03:26:46.977Z,10.30
2017-06-23T03:29:15.271Z,10.93
2017-06-23T03:31:43.776Z,10.35
2017-06-23T03:34:12.086Z,10.60
2017-06-23T03:36:40.367Z,11.48
2017-06-23T03:39:08.672Z,11.10
2017-06-23T03:41:37.004Z,9.77
2017-06-23T03:44:05.410Z,11.20
2017-06-23T03:46:33.695Z,11.50
2017-06-23T03:49:02.003Z,10.15
2017-06-23T03:51:30.748Z,9.02
2017-06-23T03:53:59.052Z,9.43
2017-06-23T03:56:27.337Z,10.27
2017-06-23T03:58:55.748Z,10.38
2017-06-23T04:01:24.819Z,10.90
2017-06-23T04:03:53.118Z,10.52
2017-06-23T04:06:21.435Z,11.98
2017-06-23T04:08:49.729Z,11.12
2017-06-23T04:11:18.795Z,11.52
2017-06-23T04:13:47.084Z,11.35
2017-06-23T04:16:15.703Z,11.60
2017-06-23T04:18:44.178Z,10.00
2017-06-23T04:21:13.299Z,10.10
2017-06-23T04:23:41.631Z,10.90
2017-06-23T04:26:10.715Z,10.55
2017-06-23T04:28:39.775Z,11.68
2017-06-23T04:31:08.075Z,11.05
2017-06-23T04:33:37.191Z,10.27
2017-06-23T04:36:05.488Z,10.30
2017-06-23T04:38:35.381Z,11.10
2017-06-23T04:41:03.686Z,11.15
2017-06-23T04:43:32.017Z,10.90
2017-06-23T04:46:00.331Z,10.32
2017-06-23T04:48:28.611Z,10.32
2017-06-23T04:50:57.055Z,11.05
2017-06-23T04:53:25.342Z,11.75
2017-06-23T04:55:53.671Z,10.85
2017-06-23T04:58:21.962Z,11.43
2017-06-23T05:00:50.261Z,11.70
2017-06-23T05:03:19.334Z,11.48
2017-06-23T05:05:48.401Z,9.82
2017-06-23T05:08:16.814Z,11.63
2017-06-23T05:10:45.111Z,9.88
2017-06-23T05:13:13.444Z,10.82
2017-06-23T05:15:42.685Z,10.93
2017-06-23T05:18:10.977Z,10.15
2017-06-23T05:20:39.269Z,10.10
2017-06-23T05:23:07.582Z,11.07
2017-06-23T05:25:35.867Z,12.27
2017-06-23T05:28:04.188Z,10.85
2017-06-23T05:30:32.467Z,10.55
2017-06-23T05:33:01.631Z,10.32
2017-06-23T05:35:29.935Z,10.75
2017-06-23T05:37:58.226Z,9.73
2017-06-23T05:40:26.538Z,10.30
2017-06-23T05:42:54.821Z,10.18
2017-06-23T05:45:23.136Z,9.40
2017-06-23T05:47:51.633Z,10.60
2017-06-23T05:50:21.010Z,11.38
2017-06-23T05:52:50.071Z,10.70
2017-06-23T05:55:18.407Z,10.45
2017-06-23T05:57:46.755Z,10.18
2017-06-23T06:00:15.288Z,12.10
2017-06-23T06:02:44.343Z,9.63
2017-06-23T06:05:12.643Z,10.00
2017-06-23T06:07:41.719Z,10.20
2017-06-23T06:10:10.784Z,10.88
2017-06-23T06:12:39.098Z,10.57
2017-06-23T06:15:07.386Z,9.52
2017-06-23T06:17:35.806Z,9.30
2017-06-23T06:20:04.100Z,10.63
2017-06-23T06:22:32.540Z,11.25
2017-06-23T06:25:00.860Z,10.88
2017-06-23T06:27:29.159Z,9.90
2017-06-23T06:29:57.479Z,9.85
2017-06-23T06:32:25.795Z,9.77
2017-06-23T06:34:54.205Z,9.10
2017-06-23T06:37:22.573Z,9.73
2017-06-23T06:39:51.085Z,9.32
2017-06-23T06:42:19.387Z,9.93
2017-06-23T06:44:47.676Z,11.07
2017-06-23T06:47:16.748Z,11.30
2017-06-23T06:49:45.802Z,11.50
2017-06-23T06:52:14.100Z,12.30
2017-06-23T06:54:43.175Z,10.82
2017-06-23T06:57:12.248Z,10.82
2017-06-23T06:59:40.672Z,11.10
2017-06-23T07:02:08.950Z,12.73
2017-06-23T07:04:37.269Z,13.25
2017-06-23T07:07:05.575Z,11.50
2017-06-23T07:09:33.882Z,12.52
2017-06-23T07:12:02.343Z,10.57
2017-06-23T07:14:30.977Z,11.12
2017-06-23T07:16:59.385Z,13.23
2017-06-23T07:19:27.683Z,11.55
2017-06-23T07:21:55.982Z,12.68
2017-06-23T07:24:25.057Z,11.50
2017-06-23T07:26:53.355Z,12.52
2017-06-23T07:29:21.683Z,12.52
2017-06-23T07:31:50.754Z,11.10
2017-06-23T07:34:19.052Z,12.85
2017-06-23T07:36:47.355Z,13.07
2017-06-23T07:39:15.655Z,13.48
2017-06-23T07:41:44.754Z,12.15
2017-06-23T07:44:13.807Z,13.30
2017-06-23T07:46:42.136Z,12.73
2017-06-23T07:49:10.480Z,13.80
2017-06-23T07:51:38.841Z,12.40
2017-06-23T07:54:07.127Z,13.80
2017-06-23T07:56:35.449Z,11.10
2017-06-23T07:59:03.947Z,12.60
2017-06-23T08:01:32.268Z,11.10
2017-06-23T08:04:01.320Z,12.70
2017-06-23T08:06:29.611Z,12.45
2017-06-23T08:08:58.914Z,12.95
2017-06-23T08:11:27.199Z,12.67
2017-06-23T08:13:55.615Z,12.40
2017-06-23T08:16:23.991Z,13.30
2017-06-23T08:18:52.303Z,14.90
2017-06-23T08:21:20.587Z,12.60
2017-06-23T08:23:49.003Z,12.40
2017-06-23T08:26:17.295Z,11.37
2017-06-23T08:28:45.591Z,11.10
2017-06-23T08:31:14.653Z,11.90
2017-06-23T08:33:42.973Z,11.70
2017-06-23T08:36:11.265Z,11.33
2017-06-23T08:38:40.472Z,12.27
2017-06-23T08:41:09.902Z,11.73
2017-06-23T08:43:38.179Z,10.87
2017-06-23T08:46:06.539Z,10.97
2017-06-23T08:48:34.818Z,11.70
2017-06-23T08:51:03.241Z,10.77
2017-06-23T08:53:31.522Z,11.50
2017-06-23T08:55:59.827Z,10.33
2017-06-23T08:58:28.125Z,10.40
2017-06-23T09:00:56.450Z,10.30
2017-06-23T09:03:24.737Z,9.10
2017-06-23T09:05:53.236Z,9.30
2017-06-23T09:08:21.522Z,10.83
2017-06-23T09:10:49.828Z,9.43
2017-06-23T09:13:18.319Z,9.40
2017-06-23T09:15:47.551Z,10.00
2017-06-23T09:18:15.867Z,9.60
2017-06-23T09:20:44.155Z,10.23
2017-06-23T09:23:12.459Z,9.97
2017-06-23T09:25:41.523Z,10.60
2017-06-23T09:28:09.847Z,9.90
2017-06-23T09:30:38.136Z,9.20
2017-06-23T09:33:06.451Z,9.93
2017-06-23T09:35:34.898Z,11.00
2017-06-23T09:38:03.431Z,9.70
2017-06-23T09:40:31.719Z,10.20
2017-06-23T09:43:00.803Z,9.80
2017-06-23T09:45:29.917Z,8.33
2017-06-23T09:47:58.203Z,9.60
2017-06-23T09:50:26.566Z,10.07
2017-06-23T09:52:54.864Z,8.57
2017-06-23T09:55:23.242Z,9.50
2017-06-23T09:57:51.522Z,8.70
2017-06-23T10:00:19.818Z,9.13
2017-06-23T10:02:48.103Z,8.83
2017-06-23T10:05:16.443Z,7.83
2017-06-23T10:07:44.855Z,9.10
2017-06-23T10:10:13.145Z,11.03
2017-06-23T10:12:41.454Z,8.87
2017-06-23T10:15:11.459Z,8.77
2017-06-23T10:17:40.531Z,9.43
2017-06-23T10:20:09.938Z,8.40
2017-06-23T10:22:38.215Z,7.13
2017-06-23T10:25:06.496Z,6.60
2017-06-23T10:27:34.796Z,7.90
2017-06-23T10:30:03.116Z,8.45
2017-06-23T10:32:31.391Z,7.57
2017-06-23T10:34:59.713Z,8.75
2017-06-23T10:37:28.755Z,7.20
2017-06-23T10:39:57.035Z,8.77
2017-06-23T10:42:25.453Z,8.50
2017-06-23T10:44:53.742Z,7.73
2017-06-23T10:47:22.047Z,8.70
2017-06-23T10:49:50.623Z,8.10
2017-06-23T10:52:18.906Z,7.33
2017-06-23T10:54:47.205Z,6.80
2017-06-23T10:57:15.478Z,7.30
2017-06-23T10:59:44.007Z,7.60
2017-06-23T11:02:12.284Z,7.60
2017-06-23T11:04:40.554Z,8.13
2017-06-23T11:07:08.920Z,7.63
2017-06-23T11:09:37.201Z,7.57
2017-06-23T11:12:06.251Z,7.27
2017-06-23T11:14:34.527Z,5.93
2017-06-23T11:17:02.817Z,6.30
2017-06-23T11:19:31.861Z,6.53
2017-06-23T11:22:00.145Z,5.90
2017-06-23T11:24:28.421Z,7.13
2017-06-23T11:26:56.791Z,7.83
2017-06-23T11:29:25.079Z,7.40
2017-06-23T11:31:53.508Z,6.97
2017-06-23T11:34:32.552Z,6.87
2017-06-23T11:37:00.840Z,6.57
2017-06-23T11:39:29.147Z,5.80
2017-06-23T11:41:57.496Z,6.93
2017-06-23T11:44:26.556Z,6.70
2017-06-23T11:46:54.833Z,6.53
2017-06-23T11:49:23.327Z,8.10
2017-06-23T11:51:51.612Z,6.50
2017-06-23T11:54:19.899Z,6.13
2017-06-23T11:56:48.187Z,6.77
2017-06-23T11:59:16.684Z,5.90
2017-06-23T12:01:45.754Z,6.47
2017-06-23T12:04:14.124Z,5.90
2017-06-23T12:06:42.388Z,6.80
2017-06-23T12:09:10.676Z,4.87
2017-06-23T12:11:39.027Z,4.83
2017-06-23T12:14:07.844Z,5.80
2017-06-23T12:16:36.121Z,5.90
2017-06-23T12:19:05.163Z,6.40
2017-06-23T12:21:33.464Z,6.17
2017-06-23T12:24:02.511Z,5.60
2017-06-23T12:26:30.803Z,5.70
2017-06-23T12:29:00.044Z,6.20
2017-06-23T12:31:28.350Z,6.67
2017-06-23T12:33:57.404Z,5.87
2017-06-23T12:36:25.695Z,6.43
2017-06-23T12:38:54.740Z,5.87
2017-06-23T12:41:23.035Z,5.10
2017-06-23T12:43:52.092Z,5.40
2017-06-23T12:46:20.379Z,5.73
2017-06-23T12:48:48.679Z,5.17
2017-06-23T12:51:17.116Z,6.13
2017-06-23T12:53:45.394Z,6.13
2017-06-23T12:56:13.721Z,5.80
2017-06-23T12:58:42.983Z,4.87
2017-06-23T13:01:11.263Z,4.83
2017-06-23T13:03:39.552Z,5.10
2017-06-23T13:06:08.016Z,5.13
2017-06-23T13:08:37.393Z,4.67
2017-06-23T13:11:05.774Z,4.50
2017-06-23T13:13:34.075Z,4.60
2017-06-23T13:16:02.353Z,5.00
2017-06-23T13:18:31.715Z,4.97
2017-06-23T13:20:59.991Z,3.73
2017-06-23T13:23:28.316Z,6.53
2017-06-23T13:25:56.581Z,5.03
2017-06-23T13:28:24.876Z,4.40
2017-06-23T13:30:53.152Z,5.17
2017-06-23T13:33:21.454Z,4.30
2017-06-23T13:35:49.727Z,4.57
2017-06-23T13:38:18.055Z,4.20
2017-06-23T13:40:47.095Z,4.53
2017-06-23T13:43:15.407Z,4.80
2017-06-23T13:45:43.858Z,4.77
2017-06-23T13:48:13.005Z,4.63
2017-06-23T13:50:41.289Z,4.73
2017-06-23T13:53:09.563Z,4.50
2017-06-23T13:55:38.645Z,4.63
2017-06-23T13:58:06.907Z,4.47
2017-06-23T14:00:35.199Z,4.63
2017-06-23T14:03:04.187Z,4.13
2017-06-23T14:05:32.536Z,4.90
2017-06-23T14:08:00.828Z,5.00
2017-06-23T14:10:29.937Z,4.90
2017-06-23T14:12:58.219Z,4.40
2017-06-23T14:15:27.274Z,4.20
2017-06-23T14:17:55.569Z,4.73
2017-06-23T14:20:23.867Z,4.50
2017-06-23T14:22:52.148Z,4.40
2017-06-23T14:25:20.428Z,5.63
2017-06-23T14:27:49.500Z,5.00
2017-06-23T14:30:17.811Z,4.57
2017-06-23T14:32:46.107Z,4.93
2017-06-23T14:35:14.388Z,4.43
2017-06-23T14:37:42.702Z,4.53
2017-06-23T14:40:10.961Z,4.53
2017-06-23T14:42:39.257Z,4.50
2017-06-23T14:45:07.666Z,4.80
2017-06-23T14:47:36.739Z,5.00
2017-06-23T14:50:05.015Z,4.90
2017-06-23T14:52:33.301Z,4.70
2017-06-23T14:55:01.575Z,4.60
2017-06-23T14:57:30.098Z,3.87
2017-06-23T14:59:58.551Z,4.67
2017-06-23T15:02:26.839Z,3.77
2017-06-23T15:04:55.158Z,4.10
2017-06-23T15:07:23.457Z,3.80
2017-06-23T15:09:51.735Z,6.07
2017-06-23T15:12:20.040Z,3.83
2017-06-23T15:14:48.316Z,4.20
2017-06-23T15:17:17.355Z,4.53
2017-06-23T15:19:45.655Z,3.57
2017-06-23T15:22:14.712Z,4.30
2017-06-23T15:24:43.008Z,4.73
2017-06-23T15:27:12.055Z,3.93
2017-06-23T15:29:40.354Z,4.03
2017-06-23T15:32:09.485Z,3.93
2017-06-23T15:34:37.777Z,4.00
2017-06-23T15:37:06.145Z,3.97
2017-06-23T15:39:34.435Z,4.40
2017-06-23T15:42:02.720Z,3.87
2017-06-23T15:44:31.078Z,3.97
2017-06-23T15:46:59.400Z,3.80
2017-06-23T15:49:27.734Z,4.50
2017-06-23T15:51:56.066Z,4.03
2017-06-23T15:54:24.346Z,3.97
2017-06-23T15:56:52.657Z,4.10
2017-06-23T15:59:22.178Z,3.63
2017-06-23T16:01:50.477Z,3.70
2017-06-23T16:04:18.943Z,3.77
2017-06-23T16:06:47.247Z,3.70
2017-06-23T16:09:15.546Z,3.43
2017-06-23T16:11:43.855Z,3.93
2017-06-23T16:14:12.896Z,4.80
2017-06-23T16:16:41.212Z,3.57
2017-06-23T16:19:09.500Z,4.43
2017-06-23T16:21:37.815Z,3.77
2017-06-23T16:24:06.191Z,4.70
2017-06-23T16:26:34.815Z,3.90
2017-06-23T16:29:03.231Z,4.33
2017-06-23T16:31:31.787Z,3.90
2017-06-23T16:34:00.131Z,4.27
2017-06-23T16:36:28.419Z,5.33
2017-06-23T16:38:56.839Z,4.50
2017-06-23T16:41:25.123Z,4.47
2017-06-23T16:43:53.505Z,4.67
2017-06-23T16:46:21.855Z,4.13
2017-06-23T16:48:50.943Z,4.10
2017-06-23T16:51:19.257Z,4.13
2017-06-23T16:53:47.599Z,3.40
2017-06-23T16:56:15.928Z,3.37
2017-06-23T16:58:44.984Z,3.67
2017-06-23T17:01:13.274Z,3.47
2017-06-23T17:03:41.532Z,4.20
2017-06-23T17:06:10.605Z,3.70
2017-06-23T17:08:38.888Z,3.90
2017-06-23T17:11:08.263Z,3.47
2017-06-23T17:13:36.814Z,3.70
2017-06-23T17:16:05.111Z,4.03
2017-06-23T17:18:33.584Z,4.17
2017-06-23T17:21:01.896Z,3.93
2017-06-23T17:23:30.276Z,3.47
2017-06-23T17:25:58.584Z,3.90
2017-06-23T17:28:26.947Z,3.53
2017-06-23T17:30:55.270Z,3.50
2017-06-23T17:33:23.539Z,3.60
2017-06-23T17:35:51.831Z,3.87
2017-06-23T17:38:20.111Z,3.27
2017-06-23T17:40:48.463Z,3.50
2017-06-23T17:43:16.739Z,2.90
2017-06-23T17:45:45.922Z,3.73
2017-06-23T17:48:14.189Z,3.67
2017-06-23T17:50:43.103Z,3.70
2017-06-23T17:53:11.385Z,3.57
2017-06-23T17:55:40.220Z,3.97
2017-06-23T17:58:08.510Z,3.17
2017-06-23T18:00:36.793Z,3.20
2017-06-23T18:03:05.085Z,3.13
2017-06-23T18:05:33.512Z,3.80
2017-06-23T18:08:01.886Z,3.03
2017-06-23T18:10:30.164Z,3.40
2017-06-23T18:12:58.487Z,2.73
2017-06-23T18:15:26.841Z,3.20
2017-06-23T18:17:55.908Z,4.03
2017-06-23T18:20:24.192Z,3.37
2017-06-23T18:22:52.530Z,3.00
2017-06-23T18:25:20.915Z,2.90
2017-06-23T18:27:49.247Z,3.50
2017-06-23T18:30:17.617Z,3.33
2017-06-23T18:32:45.915Z,2.77
2017-06-23T18:35:14.279Z,3.00
2017-06-23T18:37:42.626Z,3.27
2017-06-23T18:40:10.951Z,3.20
2017-06-23T18:42:39.211Z,3.03
2017-06-23T18:45:07.591Z,3.00
2017-06-23T18:47:35.883Z,3.37
2017-06-23T18:50:04.198Z,2.50
2017-06-23T18:52:32.483Z,3.17
2017-06-23T18:55:01.526Z,3.00
2017-06-23T18:57:29.834Z,2.60
2017-06-23T18:59:58.161Z,3.03
2017-06-23T19:02:26.467Z,3.10
2017-06-23T19:04:54.916Z,2.90
2017-06-23T19:07:24.069Z,2.40
2017-06-23T19:09:52.415Z,3.80
2017-06-23T19:12:20.708Z,2.77
2017-06-23T19:14:49.706Z,3.10
2017-06-23T19:17:17.977Z,3.10
2017-06-23T19:19:47.048Z,2.93
2017-06-23T19:22:15.527Z,2.37
2017-06-23T19:24:43.916Z,3.00
2017-06-23T19:27:12.320Z,3.60
2017-06-23T19:29:40.608Z,3.37
2017-06-23T19:32:09.691Z,3.00
2017-06-23T19:34:38.957Z,3.57
2017-06-23T19:37:08.039Z,3.53
2017-06-23T19:39:36.554Z,3.55
2017-06-23T19:42:04.887Z,2.60
2017-06-23T19:44:33.189Z,2.50
2017-06-23T19:47:01.474Z,3.00
2017-06-23T19:49:29.774Z,2.62
2017-06-23T19:51:58.115Z,2.95
2017-06-23T19:54:26.461Z,2.92
2017-06-23T19:56:55.687Z,2.40
2017-06-23T19:59:24.190Z,3.20
2017-06-23T20:01:52.475Z,2.78
2017-06-23T20:04:20.927Z,3.13
2017-06-23T20:06:49.229Z,2.92
2017-06-23T20:09:18.291Z,2.87
2017-06-23T20:11:46.606Z,3.00
2017-06-23T20:14:14.899Z,2.80
2017-06-23T20:16:43.204Z,3.15
2017-06-23T20:19:11.579Z,2.95
2017-06-23T20:21:39.992Z,3.40
2017-06-23T20:24:08.459Z,3.00
2017-06-23T20:26:36.751Z,2.53
2017-06-23T20:29:05.807Z,4.30
2017-06-23T20:31:34.099Z,3.20
2017-06-23T20:34:02.491Z,2.50
2017-06-23T20:36:32.182Z,2.97
2017-06-23T20:39:00.773Z,2.58
2017-06-23T20:41:30.429Z,2.92
2017-06-23T20:43:58.824Z,2.67
2017-06-23T20:46:27.261Z,2.85
2017-06-23T20:48:55.556Z,2.95
2017-06-23T20:51:23.952Z,3.35
2017-06-23T20:53:52.267Z,2.97
2017-06-23T20:56:20.826Z,2.83
2017-06-23T20:58:49.299Z,3.35
2017-06-23T21:01:18.317Z,3.00
2017-06-23T21:03:46.616Z,2.65
2017-06-23T21:06:15.683Z,3.03
2017-06-23T21:08:44.011Z,3.15
2017-06-23T21:11:12.289Z,2.75
2017-06-23T21:13:40.752Z,3.10
2017-06-23T21:16:09.135Z,3.30
2017-06-23T21:18:37.570Z,2.90
2017-06-23T21:21:05.848Z,3.40
2017-06-23T21:23:35.006Z,3.28
2017-06-23T21:26:03.294Z,2.95
2017-06-23T21:28:31.581Z,4.30
2017-06-23T21:30:59.933Z,2.97
2017-06-23T21:33:28.319Z,3.05
2017-06-23T21:35:56.595Z,3.42
2017-06-23T21:38:24.904Z,3.33
2017-06-23T21:41:16.043Z,2.65
2017-06-23T21:43:44.328Z,3.45
2017-06-23T21:46:13.377Z,4.28
2017-06-23T21:48:42.536Z,4.50
2017-06-23T21:51:10.808Z,4.35
2017-06-23T21:53:39.109Z,3.05
2017-06-23T21:56:07.392Z,3.50
2017-06-23T21:58:35.738Z,3.10
2017-06-23T22:01:04.148Z,3.25
2017-06-23T22:03:32.455Z,3.03
2017-06-23T22:06:01.187Z,2.78
2017-06-23T22:08:29.998Z,3.05
2017-06-23T22:10:58.266Z,3.80
2017-06-23T22:13:26.559Z,3.70
2017-06-23T22:15:54.863Z,2.80
2017-06-23T22:18:23.527Z,3.15
2017-06-23T22:20:51.983Z,3.55
2017-06-23T22:23:21.060Z,3.08
2017-06-23T22:25:50.327Z,3.97
2017-06-23T22:28:18.671Z,3.33
2017-06-23T22:30:46.947Z,3.90
2017-06-23T22:33:15.375Z,3.10
2017-06-23T22:35:43.933Z,2.65
2017-06-23T22:38:12.967Z,2.62
2017-06-23T22:40:41.252Z,3.37
2017-06-23T22:43:10.303Z,2.85
2017-06-23T22:45:38.583Z,3.30
2017-06-23T22:48:06.985Z,7.15
2017-06-23T22:50:35.415Z,5.60
2017-06-23T22:53:03.692Z,4.85
2017-06-23T22:55:31.975Z,3.90
2017-06-23T22:58:00.285Z,3.70
2017-06-23T23:00:28.806Z,3.83
2017-06-23T23:02:57.488Z,3.05
2017-06-23T23:05:26.015Z,3.00
2017-06-23T23:07:55.111Z,3.95
2017-06-23T23:10:23.387Z,3.75
2017-06-23T23:12:52.516Z,4.43
2017-06-23T23:15:20.803Z,3.80
2017-06-23T23:17:49.595Z,5.07
2017-06-23T23:20:18.011Z,3.10
2017-06-23T23:22:46.588Z,4.93
2017-06-23T23:25:15.670Z,3.47
2017-06-23T23:27:43.946Z,4.20
2017-06-23T23:30:12.365Z,4.03
2017-06-23T23:32:40.639Z,3.70
2017-06-23T23:35:08.921Z,8.20
2017-06-23T23:37:37.211Z,4.32
2017-06-23T23:40:05.491Z,6.18
2017-06-23T23:42:34.337Z,3.65
2017-06-23T23:45:03.371Z,4.75
2017-06-23T23:47:31.657Z,4.22
2017-06-23T23:49:59.987Z,4.32
2017-06-23T23:52:28.263Z,3.40
2017-06-23T23:54:56.734Z,4.20
2017-06-23T23:57:25.076Z,3.72
2017-06-23T23:59:53.351Z,3.67
